createdAt,value
2023-04-15T00:01:28.631Z,10.38
2023-04-15T00:03:54.699Z,7.50
2023-04-15T00:06:19.507Z,9.38
2023-04-15T00:08:44.051Z,10.48
2023-04-15T00:11:08.543Z,8.40
2023-04-15T00:13:35.459Z,5.80
2023-04-15T00:16:01.683Z,8.05
2023-04-15T00:18:26.607Z,7.45
2023-04-15T00:20:51.075Z,8.70
2023-04-15T00:23:16.114Z,7.63
2023-04-15T00:25:40.611Z,6.75
2023-04-15T00:28:05.122Z,5.88
2023-04-15T00:30:29.577Z,9.27
2023-04-15T00:32:55.503Z,8.00
2023-04-15T00:35:20.783Z,8.02
2023-04-15T00:37:46.399Z,7.68
2023-04-15T00:40:14.813Z,13.20
2023-04-15T00:42:40.414Z,9.20
2023-04-15T00:45:05.589Z,12.25
2023-04-15T00:47:31.726Z,8.43
2023-04-15T00:49:58.120Z,6.55
2023-04-15T00:52:22.717Z,7.18
2023-04-15T00:54:48.877Z,7.70
2023-04-15T00:57:13.719Z,6.88
2023-04-15T00:59:38.467Z,8.77
2023-04-15T01:02:03.104Z,9.63
2023-04-15T01:04:27.904Z,6.28
2023-04-15T01:06:54.092Z,8.38
2023-04-15T01:09:19.410Z,8.13
2023-04-15T01:11:43.985Z,7.03
2023-04-15T01:14:10.134Z,10.63
2023-04-15T01:16:35.535Z,8.70
2023-04-15T01:19:00.353Z,10.02
2023-04-15T01:21:25.240Z,9.98
2023-04-15T01:23:54.603Z,5.22
2023-04-15T01:26:21.706Z,7.18
2023-04-15T01:28:46.192Z,10.95
2023-04-15T01:31:11.958Z,7.53
2023-04-15T01:33:36.722Z,9.35
2023-04-15T01:36:20.552Z,7.57
2023-04-15T01:38:44.945Z,10.95
2023-04-15T01:41:09.255Z,10.02
2023-04-15T01:43:37.481Z,14.15
2023-04-15T01:46:03.215Z,11.35
2023-04-15T01:48:31.334Z,10.35
2023-04-15T01:50:58.505Z,22.50
2023-04-15T01:53:24.302Z,12.50
2023-04-15T01:55:49.968Z,14.50
2023-04-15T01:58:16.548Z,14.07
2023-04-15T02:00:44.313Z,13.07
2023-04-15T02:03:10.050Z,11.70
2023-04-15T02:05:35.947Z,12.63
2023-04-15T02:08:03.940Z,9.98
2023-04-15T02:10:29.755Z,16.10
2023-04-15T02:12:55.656Z,14.13
2023-04-15T02:15:21.767Z,12.65
2023-04-15T02:17:51.220Z,11.70
2023-04-15T02:20:17.098Z,15.88
2023-04-15T02:22:42.922Z,11.65
2023-04-15T02:25:10.389Z,12.13
2023-04-15T02:27:37.014Z,12.73
2023-04-15T02:30:02.757Z,9.98
2023-04-15T02:32:29.216Z,9.18
2023-04-15T02:34:56.623Z,9.27
2023-04-15T02:37:23.289Z,12.48
2023-04-15T02:39:49.130Z,9.18
2023-04-15T02:42:14.770Z,8.95
2023-04-15T02:44:40.861Z,10.25
2023-04-15T02:47:07.365Z,7.47
2023-04-15T02:49:33.011Z,9.65
2023-04-15T02:52:01.054Z,8.60
2023-04-15T02:54:28.756Z,12.73
2023-04-15T02:56:55.426Z,8.02
2023-04-15T02:59:21.596Z,9.30
2023-04-15T03:01:47.416Z,10.07
2023-04-15T03:04:13.896Z,10.00
2023-04-15T03:06:39.563Z,9.15
2023-04-15T03:09:09.513Z,10.57
2023-04-15T03:11:40.767Z,8.63
2023-04-15T03:14:08.381Z,9.77
2023-04-15T03:16:36.844Z,7.90
2023-04-15T03:19:02.653Z,7.18
2023-04-15T03:21:28.539Z,8.60
2023-04-15T03:23:54.500Z,8.80
2023-04-15T03:26:28.706Z,11.75
2023-04-15T03:28:58.153Z,8.75
2023-04-15T03:31:24.238Z,13.32
2023-04-15T03:33:49.940Z,11.25
2023-04-15T03:36:15.915Z,7.50
2023-04-15T03:38:41.591Z,7.00
2023-04-15T03:41:07.567Z,9.73
2023-04-15T03:43:34.666Z,7.55
2023-04-15T03:46:01.941Z,8.93
2023-04-15T03:48:27.741Z,7.95
2023-04-15T03:50:53.436Z,7.18
2023-04-15T03:53:19.067Z,11.48
2023-04-15T03:55:44.886Z,6.60
2023-04-15T03:58:12.938Z,10.52
2023-04-15T04:00:40.278Z,8.35
2023-04-15T04:03:06.189Z,7.15
2023-04-15T04:05:32.108Z,8.82
2023-04-15T04:07:57.845Z,5.72
2023-04-15T04:10:23.664Z,8.23
2023-04-15T04:12:49.321Z,6.95
2023-04-15T04:15:15.165Z,7.63
2023-04-15T04:17:42.409Z,7.13
2023-04-15T04:20:09.594Z,7.30
2023-04-15T04:22:39.537Z,8.65
2023-04-15T04:27:30.563Z,8.57
2023-04-15T04:29:56.143Z,5.20
2023-04-15T04:32:21.900Z,8.60
2023-04-15T04:34:49.347Z,5.70
2023-04-15T04:37:15.081Z,7.13
2023-04-15T04:39:41.262Z,7.20
2023-04-15T04:42:07.098Z,8.93
2023-04-15T04:44:32.790Z,5.95
2023-04-15T04:46:58.524Z,8.25
2023-04-15T04:49:24.211Z,8.75
2023-04-15T04:51:51.530Z,7.63
2023-04-15T04:54:17.804Z,7.60
2023-04-15T04:56:43.539Z,5.90
2023-04-15T04:59:09.477Z,9.98
2023-04-15T05:01:35.616Z,15.85
2023-04-15T05:04:01.838Z,10.20
2023-04-15T05:06:27.917Z,9.48
2023-04-15T05:08:55.026Z,9.32
2023-04-15T05:11:21.282Z,11.20
2023-04-15T05:13:47.036Z,7.13
2023-04-15T05:16:12.986Z,6.82
2023-04-15T05:18:38.612Z,7.07
2023-04-15T05:21:04.449Z,15.02
2023-04-15T05:23:30.139Z,8.30
2023-04-15T05:25:57.186Z,10.75
2023-04-15T05:28:22.893Z,9.30
2023-04-15T05:30:48.634Z,8.95
2023-04-15T05:33:14.427Z,6.10
2023-04-15T05:35:40.030Z,7.70
2023-04-15T05:38:05.786Z,7.47
2023-04-15T05:40:32.123Z,6.32
2023-04-15T05:42:59.415Z,8.43
2023-04-15T05:45:25.060Z,8.77
2023-04-15T05:47:54.228Z,6.07
2023-04-15T05:50:20.484Z,8.77
2023-04-15T05:52:46.262Z,7.28
2023-04-15T05:55:11.960Z,11.15
2023-04-15T05:57:37.831Z,12.55
2023-04-15T06:00:06.106Z,7.25
2023-04-15T06:02:35.508Z,6.47
2023-04-15T06:05:01.425Z,11.27
2023-04-15T06:07:27.247Z,8.93
2023-04-15T06:09:53.391Z,8.05
2023-04-15T06:12:19.055Z,8.90
2023-04-15T06:14:44.855Z,7.82
2023-04-15T06:17:11.940Z,10.38
2023-04-15T06:19:37.758Z,8.90
2023-04-15T06:22:03.653Z,6.68
2023-04-15T06:24:29.450Z,7.90
2023-04-15T06:26:55.094Z,11.02
2023-04-15T06:29:21.396Z,10.20
2023-04-15T06:31:49.300Z,8.43
2023-04-15T06:34:16.452Z,8.85
2023-04-15T06:36:42.011Z,14.63
2023-04-15T06:39:07.713Z,10.35
2023-04-15T06:41:34.077Z,9.48
2023-04-15T06:44:00.187Z,10.40
2023-04-15T06:46:26.088Z,8.85
2023-04-15T06:48:52.394Z,9.70
2023-04-15T06:51:19.513Z,9.27
2023-04-15T06:53:45.197Z,8.80
2023-04-15T06:56:11.007Z,6.82
2023-04-15T06:58:36.732Z,10.48
2023-04-15T07:01:02.424Z,8.00
2023-04-15T07:03:28.360Z,6.70
2023-04-15T07:05:54.819Z,11.73
2023-04-15T07:08:22.504Z,7.85
2023-04-15T07:10:48.474Z,7.43
2023-04-15T07:13:14.365Z,6.78
2023-04-15T07:15:40.161Z,5.60
2023-04-15T07:18:06.070Z,6.45
2023-04-15T07:20:31.795Z,6.43
2023-04-15T07:22:57.714Z,10.50
2023-04-15T07:25:24.815Z,8.57
2023-04-15T07:27:50.653Z,8.00
2023-04-15T07:30:17.049Z,5.53
2023-04-15T07:32:44.064Z,4.45
2023-04-15T07:35:10.891Z,6.45
2023-04-15T07:37:36.686Z,6.75
2023-04-15T07:40:02.290Z,6.93
2023-04-15T07:42:29.951Z,7.32
2023-04-15T07:44:55.748Z,10.60
2023-04-15T07:47:21.513Z,7.82
2023-04-15T07:49:47.366Z,9.20
2023-04-15T07:52:13.058Z,11.15
2023-04-15T07:54:38.990Z,9.07
2023-04-15T07:57:04.889Z,6.88
2023-04-15T07:59:33.683Z,8.10
2023-04-15T08:01:59.485Z,5.85
2023-04-15T08:04:25.482Z,5.80
2023-04-15T08:06:52.549Z,7.40
2023-04-15T08:09:18.308Z,6.40
2023-04-15T08:11:44.118Z,6.40
2023-04-15T08:14:09.762Z,6.82
2023-04-15T08:16:37.530Z,7.45
2023-04-15T08:19:03.931Z,7.15
2023-04-15T08:21:31.059Z,10.82
2023-04-15T08:23:56.909Z,5.45
2023-04-15T08:26:23.012Z,10.60
2023-04-15T08:28:49.230Z,5.93
2023-04-15T08:31:16.434Z,7.30
2023-04-15T08:33:43.584Z,10.48
2023-04-15T08:36:09.586Z,10.63
2023-04-15T08:38:35.396Z,13.05
2023-04-15T08:41:05.085Z,9.18
2023-04-15T08:43:36.321Z,8.63
2023-04-15T08:46:02.767Z,8.25
2023-04-15T08:48:31.598Z,5.93
2023-04-15T08:50:59.166Z,5.47
2023-04-15T08:53:26.645Z,6.10
2023-04-15T08:55:54.862Z,6.97
2023-04-15T08:58:21.165Z,6.05
2023-04-15T09:00:48.858Z,4.85
2023-04-15T09:03:15.001Z,8.57
2023-04-15T09:05:41.089Z,6.38
2023-04-15T09:08:08.375Z,5.55
2023-04-15T09:10:34.977Z,4.90
2023-04-15T09:13:00.728Z,8.05
2023-04-15T09:15:27.620Z,6.05
2023-04-15T09:17:53.282Z,5.50
2023-04-15T09:20:19.849Z,5.95
2023-04-15T09:22:49.456Z,5.05
2023-04-15T09:25:34.276Z,6.90
2023-04-15T09:28:02.382Z,7.70
2023-04-15T09:30:29.839Z,3.67
2023-04-15T09:32:57.161Z,3.92
2023-04-15T09:35:23.683Z,7.18
2023-04-15T09:37:49.381Z,5.95
2023-04-15T09:40:15.484Z,4.15
2023-04-15T09:45:12.930Z,4.65
2023-04-15T09:47:38.928Z,4.97
2023-04-15T09:50:05.088Z,4.57
2023-04-15T09:52:31.157Z,6.10
2023-04-15T09:54:58.746Z,5.53
2023-04-15T09:57:24.975Z,7.60
2023-04-15T09:59:50.654Z,8.13
2023-04-15T10:02:19.678Z,6.15
2023-04-15T10:04:47.980Z,5.20
2023-04-15T10:07:14.499Z,5.60
2023-04-15T10:09:40.755Z,4.05
2023-04-15T10:12:07.422Z,4.65
2023-04-15T10:14:35.862Z,6.05
2023-04-15T10:17:03.637Z,2.92
2023-04-15T10:19:34.838Z,8.35
2023-04-15T10:22:01.485Z,3.30
2023-04-15T10:24:27.929Z,7.53
2023-04-15T10:26:54.221Z,2.88
2023-04-15T10:29:20.058Z,4.03
2023-04-15T10:31:46.194Z,4.18
2023-04-15T10:34:12.448Z,3.05
2023-04-15T10:36:39.628Z,6.03
2023-04-15T10:39:40.075Z,4.55
2023-04-15T10:42:09.707Z,4.68
2023-04-15T10:44:35.348Z,5.35
2023-04-15T10:47:00.969Z,4.13
2023-04-15T10:49:27.553Z,3.95
2023-04-15T10:51:58.932Z,4.03
2023-04-15T10:54:36.274Z,3.33
2023-04-15T10:57:15.086Z,6.50
2023-04-15T11:00:01.990Z,3.07
2023-04-15T11:02:41.516Z,8.48
2023-04-15T11:05:08.389Z,2.95
2023-04-15T11:07:41.175Z,6.85
2023-04-15T11:10:56.636Z,4.85
2023-04-15T11:13:30.676Z,4.72
2023-04-15T11:16:03.917Z,4.57
2023-04-15T11:18:31.963Z,6.95
2023-04-15T11:20:59.638Z,3.80
2023-04-15T11:23:38.568Z,6.95
2023-04-15T11:26:09.465Z,6.67
2023-04-15T11:28:36.278Z,7.28
2023-04-15T11:31:10.897Z,3.67
2023-04-15T11:33:36.969Z,6.10
2023-04-15T11:36:03.721Z,3.63
2023-04-15T11:38:29.438Z,2.65
2023-04-15T11:40:56.628Z,5.65
2023-04-15T11:43:26.773Z,3.80
2023-04-15T11:45:55.360Z,3.30
2023-04-15T11:48:22.118Z,4.35
2023-04-15T11:50:47.932Z,4.03
2023-04-15T11:53:16.515Z,6.43
2023-04-15T11:55:46.477Z,6.65
2023-04-15T11:58:16.254Z,5.88
2023-04-15T12:00:42.413Z,6.72
2023-04-15T12:03:19.404Z,6.43
2023-04-15T12:06:07.623Z,4.22
2023-04-15T12:08:50.950Z,6.75
2023-04-15T12:11:15.631Z,2.97
2023-04-15T12:13:45.824Z,2.83
2023-04-15T12:16:10.613Z,3.40
2023-04-15T12:18:35.112Z,2.40
2023-04-15T12:21:11.277Z,3.35
2023-04-15T12:23:38.846Z,5.80
2023-04-15T12:26:07.097Z,4.55
2023-04-15T12:28:32.906Z,4.70
2023-04-15T12:30:59.544Z,5.13
2023-04-15T12:33:24.150Z,4.72
2023-04-15T12:35:48.885Z,7.55
2023-04-15T12:38:13.624Z,6.85
2023-04-15T12:40:38.144Z,4.03
2023-04-15T12:43:03.244Z,5.18
2023-04-15T12:45:29.908Z,1.95
2023-04-15T12:47:56.095Z,3.33
2023-04-15T12:50:20.617Z,5.85
2023-04-15T12:52:45.191Z,2.08
2023-04-15T12:55:10.411Z,2.28
2023-04-15T12:57:35.041Z,2.35
2023-04-15T12:59:59.504Z,3.00
2023-04-15T13:02:25.732Z,2.67
2023-04-15T13:04:52.460Z,3.88
2023-04-15T13:07:17.099Z,5.18
2023-04-15T13:09:41.681Z,5.53
2023-04-15T13:12:06.472Z,4.35
2023-04-15T13:14:31.252Z,3.90
2023-04-15T13:16:55.808Z,4.43
2023-04-15T13:19:20.240Z,3.47
2023-04-15T13:21:48.725Z,4.65
2023-04-15T13:24:14.532Z,5.25
2023-04-15T13:26:39.053Z,5.13
2023-04-15T13:29:03.593Z,4.95
2023-04-15T13:31:28.415Z,4.07
2023-04-15T13:33:52.951Z,8.40
2023-04-15T13:36:17.606Z,3.08
2023-04-15T13:38:43.438Z,3.78
2023-04-15T13:41:08.051Z,3.05
2023-04-15T13:43:46.411Z,4.75
2023-04-15T13:46:11.332Z,3.25
2023-04-15T13:48:36.226Z,1.83
2023-04-15T13:51:00.949Z,3.28
2023-04-15T13:53:37.604Z,1.77
2023-04-15T13:56:04.828Z,4.18
2023-04-15T13:58:29.355Z,2.78
2023-04-15T14:00:54.035Z,1.67
2023-04-15T14:03:19.123Z,3.03
2023-04-15T14:05:43.892Z,4.55
2023-04-15T14:08:08.475Z,4.43
2023-04-15T14:10:36.138Z,2.33
2023-04-15T14:13:02.155Z,7.63
2023-04-15T14:15:26.884Z,4.43
2023-04-15T14:17:54.271Z,4.03
2023-04-15T14:20:19.421Z,6.03
2023-04-15T14:22:44.009Z,2.10
2023-04-15T14:25:10.519Z,3.45
2023-04-15T14:27:36.266Z,2.70
2023-04-15T14:30:02.294Z,5.22
2023-04-15T14:32:29.399Z,2.53
2023-04-15T14:34:54.098Z,3.67
2023-04-15T14:37:18.810Z,3.53
2023-04-15T14:39:43.443Z,2.28
2023-04-15T14:42:07.956Z,3.00
2023-04-15T14:44:32.637Z,2.95
2023-04-15T14:46:58.916Z,7.47
2023-04-15T14:49:23.933Z,4.20
2023-04-15T14:51:48.462Z,5.05
2023-04-15T14:54:13.021Z,4.05
2023-04-15T14:56:37.551Z,3.10
2023-04-15T14:59:02.423Z,4.20
2023-04-15T15:01:27.257Z,3.33
2023-04-15T15:03:53.348Z,2.58
2023-04-15T15:06:18.071Z,6.18
2023-04-15T15:08:42.585Z,4.63
2023-04-15T15:11:07.296Z,5.10
2023-04-15T15:13:32.944Z,1.90
2023-04-15T15:15:58.276Z,3.42
2023-04-15T15:18:22.796Z,3.67
2023-04-15T15:20:49.549Z,1.75
2023-04-15T15:23:14.019Z,4.75
2023-04-15T15:25:38.530Z,3.33
2023-04-15T15:28:03.364Z,2.10
2023-04-15T15:30:29.833Z,2.70
2023-04-15T15:32:54.319Z,1.85
2023-04-15T15:35:23.542Z,4.40
2023-04-15T15:37:49.681Z,4.32
2023-04-15T15:40:14.888Z,4.60
2023-04-15T15:42:39.345Z,1.77
2023-04-15T15:45:05.219Z,4.20
2023-04-15T15:47:30.667Z,6.07
2023-04-15T15:49:56.146Z,1.80
2023-04-15T15:52:21.078Z,4.15
2023-04-15T15:54:47.147Z,3.53
2023-04-15T15:57:11.739Z,2.38
2023-04-15T15:59:37.957Z,2.47
2023-04-15T16:02:03.167Z,2.17
2023-04-15T16:04:38.137Z,5.80
2023-04-15T16:07:14.362Z,2.65
2023-04-15T16:09:41.072Z,3.30
2023-04-15T16:12:08.501Z,1.95
2023-04-15T16:14:33.177Z,3.22
2023-04-15T16:16:57.964Z,3.17
2023-04-15T16:19:22.948Z,3.80
2023-04-15T16:21:47.811Z,3.08
2023-04-15T16:24:12.395Z,2.17
2023-04-15T16:26:37.266Z,2.88
2023-04-15T16:29:03.664Z,3.15
2023-04-15T16:31:28.543Z,4.25
2023-04-15T16:33:53.060Z,4.13
2023-04-15T16:36:17.612Z,3.42
2023-04-15T16:38:42.332Z,2.83
2023-04-15T16:41:07.440Z,3.35
2023-04-15T16:43:31.965Z,8.70
2023-04-15T16:45:57.993Z,3.50
2023-04-15T16:48:22.834Z,8.73
2023-04-15T16:50:47.274Z,7.93
2023-04-15T16:53:11.997Z,13.00
2023-04-15T16:55:36.608Z,18.75
2023-04-15T16:58:03.746Z,17.77
2023-04-15T17:00:29.389Z,13.85
2023-04-15T17:02:56.807Z,9.07
2023-04-15T17:05:21.737Z,15.50
2023-04-15T17:07:46.184Z,13.27
2023-04-15T17:10:15.000Z,15.73
2023-04-15T17:12:40.189Z,20.83
2023-04-15T17:15:05.452Z,52.30
2023-04-15T17:17:34.684Z,36.78
2023-04-15T17:20:00.819Z,32.45
2023-04-15T17:22:31.992Z,25.77
2023-04-15T17:24:58.607Z,38.55
2023-04-15T17:27:26.560Z,35.17
2023-04-15T17:29:52.000Z,17.73
2023-04-15T17:32:36.701Z,20.85
2023-04-15T17:35:23.507Z,10.55
2023-04-15T17:38:08.030Z,13.32
2023-04-15T17:40:52.387Z,8.73
2023-04-15T17:43:36.816Z,10.82
2023-04-15T17:46:21.157Z,9.63
2023-04-15T17:49:06.791Z,5.72
2023-04-15T17:51:55.597Z,7.43
2023-04-15T17:54:39.918Z,7.90
2023-04-15T17:57:25.305Z,8.70
2023-04-15T18:00:11.848Z,6.10
2023-04-15T18:02:59.238Z,11.82
2023-04-15T18:05:44.224Z,5.85
2023-04-15T18:08:30.481Z,4.95
2023-04-15T18:11:14.820Z,11.23
2023-04-15T18:14:04.517Z,8.77
2023-04-15T18:16:49.419Z,13.93
2023-04-15T18:19:33.973Z,19.00
2023-04-15T18:22:01.021Z,18.10
2023-04-15T18:24:27.053Z,15.95
2023-04-15T18:26:53.395Z,15.32
2023-04-15T18:29:27.947Z,13.68
2023-04-15T18:31:53.685Z,13.68
2023-04-15T18:34:18.357Z,18.05
2023-04-15T18:36:44.460Z,9.38
2023-04-15T18:39:09.122Z,6.90
2023-04-15T18:41:35.277Z,7.97
2023-04-15T18:44:02.605Z,11.90
2023-04-15T18:46:27.530Z,7.55
2023-04-15T18:48:52.245Z,10.10
2023-04-15T18:51:17.375Z,8.07
2023-04-15T18:53:41.976Z,9.13
2023-04-15T18:56:06.761Z,7.53
2023-04-15T18:59:27.566Z,9.07
2023-04-15T19:01:17.663Z,7.50
2023-04-15T19:03:42.278Z,8.55
2023-04-15T19:06:06.937Z,15.07
2023-04-15T19:08:32.782Z,6.25
2023-04-15T19:10:57.331Z,8.23
2023-04-15T19:13:22.674Z,13.68
2023-04-15T19:15:48.845Z,6.03
2023-04-15T19:18:13.462Z,4.40
2023-04-15T19:20:41.320Z,14.90
2023-04-15T19:23:08.670Z,11.32
2023-04-15T19:25:33.636Z,9.60
2023-04-15T19:27:59.929Z,7.60
2023-04-15T19:30:24.813Z,8.10
2023-04-15T19:32:50.909Z,7.28
2023-04-15T19:35:15.947Z,4.00
2023-04-15T19:37:40.545Z,5.32
2023-04-15T19:40:05.398Z,4.03
2023-04-15T19:42:30.071Z,15.30
2023-04-15T19:44:54.870Z,8.30
2023-04-15T19:47:19.395Z,6.32
2023-04-15T19:49:45.869Z,6.05
2023-04-15T19:52:19.197Z,9.25
2023-04-15T19:54:47.062Z,6.90
2023-04-15T19:57:11.604Z,10.95
2023-04-15T19:59:36.330Z,15.35
2023-04-15T20:02:01.003Z,5.90
2023-04-15T20:04:26.043Z,10.95
2023-04-15T20:06:52.189Z,12.52
2023-04-15T20:09:16.908Z,10.73
2023-04-15T20:12:46.625Z,11.02
2023-04-15T20:14:28.129Z,11.27
2023-04-15T20:16:52.816Z,5.55
2023-04-15T20:19:17.409Z,7.18
2023-04-15T20:21:41.841Z,12.45
2023-04-15T20:24:08.087Z,10.10
2023-04-15T20:26:32.844Z,4.63
2023-04-15T20:28:57.424Z,6.82
2023-04-15T20:31:22.593Z,7.20
2023-04-15T20:33:47.219Z,12.70
2023-04-15T20:36:11.833Z,6.97
2023-04-15T20:38:36.626Z,10.32
2023-04-15T20:41:02.669Z,7.15
2023-04-15T20:43:27.393Z,6.70
2023-04-15T20:45:54.071Z,7.47
2023-04-15T20:48:19.237Z,8.38
2023-04-15T20:50:43.888Z,5.47
2023-04-15T20:53:08.383Z,6.55
2023-04-15T20:55:32.970Z,7.05
2023-04-15T20:57:59.104Z,9.55
2023-04-15T21:00:23.863Z,12.23
2023-04-15T21:02:48.682Z,7.50
2023-04-15T21:05:13.513Z,7.53
2023-04-15T21:07:38.005Z,7.53
2023-04-15T21:10:02.603Z,7.22
2023-04-15T21:12:31.112Z,7.20
2023-04-15T21:14:57.561Z,5.43
2023-04-15T21:17:24.715Z,7.28
2023-04-15T21:19:49.380Z,6.53
2023-04-15T21:22:14.481Z,6.68
2023-04-15T21:24:39.223Z,10.90
2023-04-15T21:27:04.044Z,7.80
2023-04-15T21:29:28.632Z,9.38
2023-04-15T21:31:54.614Z,11.77
2023-04-15T21:34:19.189Z,10.23
2023-04-15T21:36:43.863Z,11.23
2023-04-15T21:39:08.554Z,8.05
2023-04-15T21:41:33.568Z,20.92
2023-04-15T21:43:58.281Z,11.07
2023-04-15T21:46:25.663Z,7.47
2023-04-15T21:48:58.622Z,9.25
2023-04-15T21:51:23.092Z,9.73
2023-04-15T21:53:47.658Z,6.50
2023-04-15T21:56:12.370Z,5.63
2023-04-15T21:58:36.909Z,11.90
2023-04-15T22:01:01.448Z,8.13
2023-04-15T22:03:26.171Z,6.45
2023-04-15T22:05:52.325Z,10.57
2023-04-15T22:08:17.123Z,12.15
2023-04-15T22:10:41.923Z,12.75
2023-04-15T22:13:08.784Z,9.80
2023-04-15T22:15:36.288Z,12.40
2023-04-15T22:18:01.072Z,12.38
2023-04-15T22:20:26.361Z,10.70
2023-04-15T22:22:54.262Z,9.52
2023-04-15T22:25:19.275Z,14.13
2023-04-15T22:27:45.054Z,12.38
2023-04-15T22:30:10.953Z,12.50
2023-04-15T22:32:35.631Z,15.85
2023-04-15T22:35:00.477Z,17.60
2023-04-15T22:37:25.192Z,17.00
2023-04-15T22:39:51.926Z,14.90
2023-04-15T22:42:16.761Z,16.17
2023-04-15T22:44:41.343Z,14.05
2023-04-15T22:47:05.916Z,19.95
2023-04-15T22:49:30.947Z,18.45
2023-04-15T22:51:55.610Z,15.70
2023-04-15T22:54:20.420Z,12.75
2023-04-15T22:56:46.455Z,15.15
2023-04-15T22:59:11.177Z,16.52
2023-04-15T23:01:36.103Z,17.00
2023-04-15T23:04:05.510Z,13.65
2023-04-15T23:06:35.450Z,14.25
2023-04-15T23:08:59.961Z,15.07
2023-04-15T23:11:24.652Z,15.73
2023-04-15T23:13:53.135Z,12.32
2023-04-15T23:16:17.902Z,13.65
2023-04-15T23:18:42.609Z,15.25
2023-04-15T23:21:07.324Z,15.02
2023-04-15T23:23:31.855Z,16.42
2023-04-15T23:25:56.486Z,12.65
2023-04-15T23:28:21.127Z,16.20
2023-04-15T23:30:47.049Z,18.30
2023-04-15T23:33:12.168Z,18.73
2023-04-15T23:35:37.857Z,17.63
2023-04-15T23:38:02.467Z,17.50
2023-04-15T23:40:27.024Z,20.10
2023-04-15T23:42:51.942Z,16.95
2023-04-15T23:45:16.500Z,19.63
2023-04-15T23:47:42.609Z,15.57
2023-04-15T23:50:08.395Z,16.42
2023-04-15T23:52:32.945Z,17.80
2023-04-15T23:54:57.696Z,15.40
2023-04-15T23:57:22.293Z,20.17
2023-04-15T23:59:46.740Z,18.15
